Time;durP1;ratioP1;P1;durP2;ratioP2;P2;SDS_P1;SDS_P2;PMS_P1;PMS_P2;Temp;Humidity;BMP_temperature;BMP_pressure;BME280_temperature;BME280_humidity;BME280_pressure;Samples;Min_cycle;Max_cycle;Signal;HPM_P1;HPM_P2
2023/01/03 00:01:54;;;;;;;3.72;3.25;;;12.30;99.90;;;;;;5125722;27;20223;-80
2023/01/03 00:04:22;;;;;;;9.45;6.80;;;12.30;99.90;;;;;;5130979;27;20232;-80
2023/01/03 00:06:53;;;;;;;7.93;5.47;;;12.30;99.90;;;;;;5128989;27;20758;-78
2023/01/03 00:09:22;;;;;;;20.80;14.80;;;12.20;99.90;;;;;;5131722;27;20682;-79
2023/01/03 00:14:39;;;;;;;6.22;3.95;;;12.20;99.90;;;;;;5124687;27;20213;-79
2023/01/03 00:17:07;;;;;;;4.15;2.38;;;12.20;99.90;;;;;;5127633;27;20310;-78
2023/01/03 00:19:39;;;;;;;4.30;3.00;;;12.20;99.90;;;;;;5128683;27;20245;-78
2023/01/03 00:22:31;;;;;;;3.25;2.40;;;12.20;99.90;;;;;;5102838;27;20758;-78
2023/01/03 00:24:58;;;;;;;6.20;4.30;;;12.20;99.90;;;;;;5123457;27;20237;-79
2023/01/03 00:27:25;;;;;;;4.60;3.33;;;12.20;99.90;;;;;;5115294;27;20206;-79
2023/01/03 00:29:55;;;;;;;4.45;2.83;;;12.20;99.90;;;;;;5132715;27;20232;-78
2023/01/03 00:32:22;;;;;;;2.97;2.70;;;12.20;99.90;;;;;;5116066;27;20694;-78
2023/01/03 00:34:49;;;;;;;6.28;3.20;;;12.20;99.90;;;;;;5129299;27;20586;-78
2023/01/03 00:37:24;;;;;;;2.58;2.38;;;12.30;99.90;;;;;;5125364;27;20310;-78
2023/01/03 00:39:58;;;;;;;6.05;3.55;;;12.30;99.90;;;;;;5114507;27;20671;-80
2023/01/03 00:42:25;;;;;;;3.72;3.05;;;12.30;99.90;;;;;;5122052;27;20214;-79
2023/01/03 00:44:55;;;;;;;3.53;2.55;;;12.30;99.90;;;;;;5123402;27;20546;-80
2023/01/03 00:47:22;;;;;;;5.38;3.05;;;12.30;99.90;;;;;;5134126;27;20283;-79
2023/01/03 00:49:50;;;;;;;5.22;3.15;;;12.30;99.90;;;;;;5121533;27;20325;-80
2023/01/03 00:52:17;;;;;;;3.65;2.97;;;12.30;99.90;;;;;;5128675;27;20238;-80
2023/01/03 00:54:46;;;;;;;3.35;2.50;;;12.30;99.90;;;;;;5123325;27;20256;-80
2023/01/03 00:57:16;;;;;;;8.30;5.38;;;12.30;99.90;;;;;;5130174;27;20232;-80
2023/01/03 00:59:44;;;;;;;3.67;2.83;;;12.30;99.90;;;;;;5129763;27;20222;-80
2023/01/03 01:02:11;;;;;;;2.80;2.60;;;12.30;99.90;;;;;;5128169;27;20214;-78
2023/01/03 01:04:41;;;;;;;2.63;2.42;;;12.30;99.90;;;;;;5117832;27;20226;-79
2023/01/03 01:07:08;;;;;;;3.83;3.53;;;12.30;99.90;;;;;;5141806;27;20230;-78
2023/01/03 01:09:37;;;;;;;5.20;2.90;;;12.30;99.90;;;;;;5117577;27;20222;-78
2023/01/03 01:12:07;;;;;;;3.33;3.03;;;12.30;99.90;;;;;;5135440;27;20293;-77
2023/01/03 01:14:35;;;;;;;2.42;2.22;;;12.20;99.90;;;;;;5120579;27;20221;-77
2023/01/03 01:17:15;;;;;;;3.13;2.70;;;12.20;99.90;;;;;;5112855;27;20239;-78
2023/01/03 01:19:44;;;;;;;6.07;4.05;;;12.20;99.90;;;;;;5110548;27;20555;-80
2023/01/03 01:25:00;;;;;;;5.60;3.00;;;12.10;99.90;;;;;;5128236;27;20267;-81
2023/01/03 01:27:27;;;;;;;8.15;3.65;;;12.00;99.90;;;;;;5121539;27;20242;-79
2023/01/03 01:29:56;;;;;;;5.97;3.40;;;12.00;99.90;;;;;;5130600;27;20237;-80
2023/01/03 01:32:24;;;;;;;3.60;3.30;;;12.00;99.90;;;;;;5123369;27;20225;-77
2023/01/03 01:34:51;;;;;;;16.98;9.40;;;11.90;99.90;;;;;;5122305;27;20234;-78
2023/01/03 01:37:18;;;;;;;11.23;6.97;;;12.00;99.90;;;;;;5134323;27;20210;-77
2023/01/03 01:39:57;;;;;;;2.95;2.65;;;11.90;99.90;;;;;;5134330;27;20233;-77
2023/01/03 01:45:34;;;;;;;5.40;3.55;;;11.80;99.90;;;;;;5071342;28;20338;-77
2023/01/03 01:48:07;;;;;;;7.85;5.07;;;11.70;99.90;;;;;;5123970;27;20226;-79
2023/01/03 01:50:43;;;;;;;10.15;7.20;;;11.70;99.90;;;;;;5123804;27;20217;-80
2023/01/03 01:53:13;;;;;;;4.05;3.42;;;11.70;99.90;;;;;;5137238;27;20221;-79
2023/01/03 01:55:49;;;;;;;2.90;2.60;;;11.60;99.90;;;;;;5136869;27;20320;-79
2023/01/03 01:58:18;;;;;;;4.22;3.53;;;11.60;99.90;;;;;;5137262;27;20557;-78
2023/01/03 02:00:46;;;;;;;7.75;4.80;;;11.60;99.90;;;;;;5137639;27;20669;-78
2023/01/03 02:03:16;;;;;;;3.05;2.75;;;11.60;99.90;;;;;;5137500;27;20286;-77
2023/01/03 02:05:49;;;;;;;8.80;5.70;;;11.60;99.90;;;;;;5137443;27;20248;-79
2023/01/03 02:08:16;;;;;;;6.35;4.25;;;11.50;99.90;;;;;;5138241;27;20257;-77
2023/01/03 02:10:59;;;;;;;2.95;1.92;;;11.50;99.90;;;;;;5137149;27;20234;-78
2023/01/03 02:13:35;;;;;;;8.93;4.70;;;11.50;99.90;;;;;;5134532;27;20267;-77
2023/01/03 02:16:23;;;;;;;5.35;3.25;;;11.40;99.90;;;;;;5138069;27;20317;-78
2023/01/03 02:18:59;;;;;;;14.68;7.47;;;11.40;99.90;;;;;;5125653;27;20229;-79
2023/01/03 02:21:57;;;;;;;3.55;2.70;;;11.30;99.90;;;;;;5120563;27;20237;-79
2023/01/03 02:25:04;;;;;;;3.17;1.98;;;11.20;99.90;;;;;;5108703;27;20275;-79
2023/01/03 02:28:06;;;;;;;3.95;2.20;;;11.20;99.90;;;;;;5109722;27;20229;-80
2023/01/03 02:30:39;;;;;;;1.67;1.58;;;11.20;99.90;;;;;;5116754;27;20325;-80
2023/01/03 02:33:15;;;;;;;3.38;1.95;;;11.10;99.90;;;;;;5117324;27;20242;-79
2023/01/03 02:35:55;;;;;;;2.40;2.10;;;11.10;99.90;;;;;;5117226;27;20237;-79
2023/01/03 02:38:29;;;;;;;1.70;1.55;;;11.00;99.90;;;;;;5116350;27;20672;-80
2023/01/03 02:41:06;;;;;;;3.03;2.25;;;11.00;99.90;;;;;;5116730;27;20271;-80
2023/01/03 02:43:41;;;;;;;4.85;3.03;;;11.00;99.90;;;;;;5116280;27;20226;-80
2023/01/03 02:46:42;;;;;;;3.15;2.17;;;10.90;99.90;;;;;;5117027;27;20596;-80
2023/01/03 02:49:16;;;;;;;2.45;1.40;;;10.90;99.90;;;;;;5103077;27;20236;-80
2023/01/03 02:51:46;;;;;;;1.90;1.60;;;10.90;99.90;;;;;;5116657;27;20305;-78
2023/01/03 02:54:19;;;;;;;8.75;5.18;;;10.90;99.90;;;;;;5115650;27;20679;-78
2023/01/03 02:56:54;;;;;;;3.78;2.17;;;10.90;99.90;;;;;;5116689;27;20222;-77
2023/01/03 02:59:29;;;;;;;3.35;1.85;;;10.80;99.90;;;;;;5115740;27;20229;-79
2023/01/03 03:02:02;;;;;;;2.58;1.65;;;10.80;99.90;;;;;;5116357;27;20698;-78
2023/01/03 03:04:33;;;;;;;5.28;1.90;;;10.80;99.90;;;;;;5116970;27;20223;-78
2023/01/03 03:07:07;;;;;;;2.42;2.22;;;10.80;99.90;;;;;;5116126;27;20234;-78
2023/01/03 03:13:11;;;;;;;5.07;4.40;;;10.80;99.90;;;;;;5115950;27;20223;-78
2023/01/03 03:15:10;;;;;;;3.78;1.80;;;10.70;99.90;;;;;;5116240;27;20225;-78
2023/01/03 03:17:41;;;;;;;3.60;3.13;;;10.70;99.90;;;;;;5116049;27;20222;-77
2023/01/03 03:25:49;;;;;;;4.05;2.08;;;10.60;99.90;;;;;;5136981;27;20370;-80
2023/01/03 03:28:36;;;;;;;2.55;2.17;;;10.60;99.90;;;;;;5136086;27;20214;-80
2023/01/03 03:31:09;;;;;;;2.58;1.58;;;10.50;99.90;;;;;;5136152;27;20218;-79
2023/01/03 03:33:43;;;;;;;4.47;2.75;;;10.50;99.90;;;;;;5136960;27;20546;-80
2023/01/03 03:36:17;;;;;;;3.40;2.33;;;10.50;99.90;;;;;;5135867;27;20221;-81
2023/01/03 03:38:45;;;;;;;2.75;1.85;;;10.40;99.90;;;;;;5136298;27;20225;-80
2023/01/03 03:47:05;;;;;;;5.45;1.83;;;10.30;99.90;;;;;;5135928;27;20557;-81
2023/01/03 03:49:38;;;;;;;2.63;2.17;;;10.20;99.90;;;;;;5136217;27;20308;-78
2023/01/03 03:52:09;;;;;;;2.90;1.52;;;10.20;99.90;;;;;;5136302;27;20309;-79
2023/01/03 03:54:41;;;;;;;2.17;1.58;;;10.20;99.90;;;;;;5135625;27;20229;-78
2023/01/03 04:03:53;;;;;;;2.35;1.70;;;10.20;99.90;;;;;;5100790;27;20181;-78
2023/01/03 04:06:25;;;;;;;3.20;2.90;;;10.10;99.90;;;;;;5135904;27;20218;-78
2023/01/03 04:08:52;;;;;;;4.20;2.30;;;10.10;99.90;;;;;;5135005;27;20320;-78
2023/01/03 04:11:19;;;;;;;6.55;2.00;;;10.00;99.90;;;;;;5135474;27;20222;-80
2023/01/03 04:13:49;;;;;;;6.32;2.40;;;10.00;99.90;;;;;;5134720;27;20588;-80
2023/01/03 04:16:16;;;;;;;3.67;2.00;;;10.00;99.90;;;;;;5135646;27;20214;-80
2023/01/03 04:18:46;;;;;;;6.85;3.58;;;10.00;99.90;;;;;;5125745;27;20305;-80
2023/01/03 04:21:13;;;;;;;4.65;2.10;;;10.00;99.90;;;;;;5135664;27;20317;-81
2023/01/03 04:23:41;;;;;;;4.00;2.92;;;10.00;99.90;;;;;;5134814;27;20301;-80
2023/01/03 04:26:08;;;;;;;4.43;2.80;;;9.90;99.90;;;;;;5135995;27;20214;-78
2023/01/03 04:28:35;;;;;;;4.15;2.25;;;10.00;99.90;;;;;;5135482;27;20293;-78
2023/01/03 04:31:03;;;;;;;3.55;2.40;;;10.00;99.90;;;;;;5132274;27;20233;-79
2023/01/03 04:33:30;;;;;;;3.72;2.03;;;9.90;99.90;;;;;;5134097;27;20660;-77
2023/01/03 04:35:57;;;;;;;2.85;1.90;;;9.90;99.90;;;;;;5126208;27;20317;-78
2023/01/03 04:38:24;;;;;;;3.28;2.20;;;9.90;99.90;;;;;;5124404;27;20226;-78
2023/01/03 04:41:11;;;;;;;2.20;2.00;;;9.90;99.90;;;;;;5134058;27;20333;-81
2023/01/03 04:46:22;;;;;;;5.10;2.25;;;9.90;99.90;;;;;;5135592;27;20220;-78
2023/01/03 04:48:50;;;;;;;5.03;2.60;;;9.90;99.90;;;;;;5125471;27;20699;-78
2023/01/03 04:51:17;;;;;;;5.65;4.00;;;9.80;99.90;;;;;;5124479;27;20745;-79
2023/01/03 04:53:44;;;;;;;6.00;3.88;;;9.80;99.90;;;;;;5134695;27;20229;-79
2023/01/03 04:56:12;;;;;;;6.38;2.75;;;9.80;99.90;;;;;;5134433;27;20214;-80
2023/01/03 04:58:39;;;;;;;5.72;4.32;;;9.80;99.90;;;;;;5133805;27;20222;-79
2023/01/03 05:01:10;;;;;;;7.57;2.83;;;9.80;99.90;;;;;;5135097;27;20260;-80
2023/01/03 05:03:39;;;;;;;4.78;2.20;;;9.80;99.90;;;;;;5124476;27;20680;-78
2023/01/03 05:06:08;;;;;;;3.55;1.95;;;9.80;99.90;;;;;;5134583;27;20218;-80
2023/01/03 05:08:36;;;;;;;2.67;2.20;;;9.70;99.90;;;;;;5133692;27;20682;-80
2023/01/03 05:11:03;;;;;;;4.25;2.38;;;9.70;99.90;;;;;;5134845;27;20589;-78
2023/01/03 05:13:32;;;;;;;1.80;1.23;;;9.70;99.90;;;;;;5134319;27;20245;-79
2023/01/03 05:16:04;;;;;;;7.35;2.65;;;9.70;99.90;;;;;;5133397;27;20248;-77
2023/01/03 05:18:33;;;;;;;5.18;2.83;;;9.70;99.90;;;;;;5133447;27;20285;-77
2023/01/03 05:26:39;;;;;;;4.47;3.80;;;9.70;99.90;;;;;;5133752;27;20228;-79
2023/01/03 05:29:09;;;;;;;7.95;4.50;;;9.60;99.90;;;;;;5133410;27;20226;-79
2023/01/03 05:31:36;;;;;;;10.27;6.57;;;9.60;99.90;;;;;;5133162;27;20210;-79
2023/01/03 05:34:03;;;;;;;8.50;4.22;;;9.60;99.90;;;;;;5133783;27;20568;-79
2023/01/03 05:36:33;;;;;;;4.95;3.38;;;9.60;99.90;;;;;;5134094;27;20225;-79
2023/01/03 05:39:03;;;;;;;5.07;2.42;;;9.60;99.90;;;;;;5133399;27;20234;-81
2023/01/03 05:44:17;;;;;;;6.75;5.38;;;9.60;99.90;;;;;;5134693;27;20665;-78
2023/01/03 05:46:44;;;;;;;7.30;6.07;;;9.60;99.90;;;;;;5132980;27;20588;-80
2023/01/03 05:49:11;;;;;;;10.23;5.57;;;9.60;99.90;;;;;;5133674;27;20635;-80
2023/01/03 05:51:39;;;;;;;6.10;4.43;;;9.60;99.90;;;;;;5133292;27;20281;-80
2023/01/03 05:54:06;;;;;;;3.97;3.58;;;9.60;99.90;;;;;;5133530;27;20213;-80
2023/01/03 05:56:33;;;;;;;6.57;4.00;;;9.50;99.90;;;;;;5133371;27;20594;-78
2023/01/03 05:59:08;;;;;;;7.80;5.35;;;9.50;99.90;;;;;;5133779;27;20252;-78
2023/01/03 06:01:36;;;;;;;9.13;4.22;;;9.50;99.90;;;;;;5133274;27;20693;-78
2023/01/03 06:04:04;;;;;;;9.18;5.13;;;9.50;99.90;;;;;;5133625;27;20237;-80
2023/01/03 06:06:31;;;;;;;3.85;3.05;;;9.50;99.90;;;;;;5132927;27;20280;-78
2023/01/03 06:08:59;;;;;;;18.13;10.85;;;9.40;99.90;;;;;;5133335;27;20230;-78
2023/01/03 06:11:26;;;;;;;13.27;8.88;;;9.40;99.90;;;;;;5132921;27;20214;-78
2023/01/03 06:13:53;;;;;;;6.10;3.80;;;9.40;99.90;;;;;;5133576;27;20250;-78
2023/01/03 06:19:07;;;;;;;8.32;3.60;;;9.40;99.90;;;;;;5133407;27;20318;-78
2023/01/03 06:21:35;;;;;;;21.58;14.98;;;9.30;99.90;;;;;;5133282;27;20314;-78
2023/01/03 06:24:04;;;;;;;17.80;10.40;;;9.30;99.90;;;;;;5133653;27;20251;-78
2023/01/03 06:26:31;;;;;;;10.90;7.05;;;9.30;99.90;;;;;;5133202;27;20257;-78
2023/01/03 06:28:59;;;;;;;10.00;6.53;;;9.30;99.90;;;;;;5133067;27;20280;-80
2023/01/03 06:31:27;;;;;;;28.85;23.17;;;9.30;99.90;;;;;;5132924;27;20226;-80
2023/01/03 06:33:54;;;;;;;11.35;7.05;;;9.30;99.90;;;;;;5133552;27;20249;-80
2023/01/03 06:36:26;;;;;;;8.30;5.30;;;9.30;99.90;;;;;;5125466;27;20239;-79
2023/01/03 06:38:53;;;;;;;13.63;9.63;;;9.30;99.90;;;;;;5137589;27;20222;-80
2023/01/03 06:41:22;;;;;;;13.82;4.45;;;9.20;99.90;;;;;;5136394;27;20226;-77
2023/01/03 06:43:49;;;;;;;4.50;3.25;;;9.20;99.90;;;;;;5126495;27;20609;-79
2023/01/03 06:54:35;;;;;;;5.55;3.47;;;9.30;99.90;;;;;;5136485;27;20279;-79
2023/01/03 06:57:02;;;;;;;8.13;3.53;;;9.20;99.90;;;;;;5137040;27;20236;-79
2023/01/03 06:59:31;;;;;;;5.93;4.20;;;9.20;99.90;;;;;;5136234;27;20242;-79
2023/01/03 07:01:58;;;;;;;6.28;3.15;;;9.20;99.90;;;;;;5136467;27;20562;-79
2023/01/03 07:04:26;;;;;;;7.40;4.50;;;9.20;99.90;;;;;;5135558;27;20309;-79
2023/01/03 07:06:54;;;;;;;7.63;4.43;;;9.20;99.90;;;;;;5136648;27;20236;-79
2023/01/03 07:09:23;;;;;;;6.40;4.47;;;9.10;99.90;;;;;;5136596;27;20249;-79
2023/01/03 07:11:51;;;;;;;5.50;4.95;;;9.10;99.90;;;;;;5135899;27;20667;-78
2023/01/03 07:14:21;;;;;;;10.70;7.43;;;9.10;99.90;;;;;;5136657;27;20571;-77
2023/01/03 07:16:49;;;;;;;10.23;6.25;;;9.10;99.90;;;;;;5125831;27;20555;-78
2023/01/03 07:19:18;;;;;;;5.80;4.57;;;9.10;99.90;;;;;;5125797;27;20253;-77
2023/01/03 07:21:45;;;;;;;6.03;4.22;;;9.10;99.90;;;;;;5123363;27;20227;-79
2023/01/03 07:24:17;;;;;;;5.78;3.17;;;9.10;99.90;;;;;;5116372;27;20309;-79
2023/01/03 07:26:44;;;;;;;7.43;4.00;;;9.10;99.90;;;;;;5115374;27;20306;-79
2023/01/03 07:29:11;;;;;;;4.25;3.70;;;9.10;99.90;;;;;;5115991;27;20280;-77
2023/01/03 07:31:40;;;;;;;5.63;3.90;;;9.10;99.90;;;;;;5115962;27;20218;-77
2023/01/03 07:34:07;;;;;;;4.00;3.60;;;9.10;99.90;;;;;;5106004;27;20225;-77
2023/01/03 07:36:36;;;;;;;7.85;4.45;;;9.00;99.90;;;;;;5106516;27;20564;-77
2023/01/03 07:39:05;;;;;;;10.38;4.43;;;9.00;99.90;;;;;;5115590;27;20227;-77
2023/01/03 07:44:20;;;;;;;4.55;3.67;;;9.00;99.90;;;;;;5117102;27;20226;-79
2023/01/03 07:46:48;;;;;;;5.80;4.03;;;9.00;99.90;;;;;;5126693;27;20315;-78
2023/01/03 07:49:14;;;;;;;6.53;4.70;;;9.00;99.90;;;;;;5116917;27;20230;-78
2023/01/03 07:51:42;;;;;;;7.38;6.65;;;9.00;99.90;;;;;;5131233;27;20608;-79
2023/01/03 07:54:09;;;;;;;5.20;3.83;;;9.00;99.90;;;;;;5134611;27;20226;-78
2023/01/03 07:56:38;;;;;;;8.85;4.97;;;9.00;99.90;;;;;;5121001;27;20235;-77
2023/01/03 07:59:05;;;;;;;5.90;4.40;;;9.00;99.90;;;;;;5115075;27;20231;-78
2023/01/03 08:01:34;;;;;;;4.00;3.30;;;9.00;99.90;;;;;;5116036;27;20242;-79
2023/01/03 08:04:01;;;;;;;4.60;3.00;;;9.00;99.90;;;;;;5107583;27;20252;-79
2023/01/03 08:06:28;;;;;;;6.47;3.78;;;9.00;99.90;;;;;;5114376;27;20242;-77
2023/01/03 08:14:25;;;;;;;9.65;4.80;;;9.00;99.90;;;;;;5114467;27;20237;-78
2023/01/03 08:16:51;;;;;;;3.53;3.20;;;9.00;99.90;;;;;;5113975;27;20297;-79
2023/01/03 08:19:52;;;;;;;4.18;3.65;;;9.00;99.90;;;;;;5120247;27;20332;-79
2023/01/03 08:22:22;;;;;;;5.63;3.90;;;9.00;99.90;;;;;;5135200;27;20234;-77
2023/01/03 08:24:48;;;;;;;5.28;3.28;;;9.00;99.90;;;;;;5135225;27;20217;-79
2023/01/03 08:27:17;;;;;;;5.20;3.55;;;8.90;99.90;;;;;;5134727;27;20694;-77
2023/01/03 08:29:46;;;;;;;4.80;3.88;;;8.90;99.90;;;;;;5134780;27;20301;-79
2023/01/03 08:32:13;;;;;;;5.53;4.15;;;9.00;99.90;;;;;;5134704;27;20569;-77
2023/01/03 08:34:43;;;;;;;7.25;4.13;;;9.00;99.90;;;;;;5135324;27;20317;-77
2023/01/03 08:37:13;;;;;;;5.10;3.70;;;8.90;99.90;;;;;;5134314;27;20218;-77
2023/01/03 08:39:44;;;;;;;3.50;3.20;;;9.00;99.90;;;;;;5134144;27;20226;-79
2023/01/03 08:42:15;;;;;;;5.50;3.17;;;9.00;99.90;;;;;;5134507;27;20269;-79
2023/01/03 08:44:43;;;;;;;9.52;4.85;;;9.00;99.90;;;;;;5135297;27;20270;-79
2023/01/03 08:47:14;;;;;;;4.03;3.53;;;9.00;99.90;;;;;;5134945;27;20291;-79
2023/01/03 08:49:41;;;;;;;4.45;4.00;;;9.00;99.90;;;;;;5135099;27;20561;-78
2023/01/03 08:52:09;;;;;;;4.80;4.35;;;8.90;99.90;;;;;;5135022;27;20312;-79
2023/01/03 08:54:38;;;;;;;4.97;3.72;;;9.00;99.90;;;;;;5135554;27;20214;-78
2023/01/03 08:57:05;;;;;;;6.78;3.08;;;9.00;99.90;;;;;;5134874;27;20229;-78
2023/01/03 08:59:32;;;;;;;5.70;2.70;;;9.10;99.90;;;;;;5134257;27;20237;-78
2023/01/03 09:02:02;;;;;;;5.05;3.33;;;9.10;99.90;;;;;;5135171;27;20249;-78
2023/01/03 09:04:29;;;;;;;4.32;2.78;;;9.10;99.90;;;;;;5123573;27;20236;-80
2023/01/03 09:06:56;;;;;;;5.78;3.38;;;9.10;99.90;;;;;;5134986;27;20256;-78
2023/01/03 09:09:23;;;;;;;5.30;3.85;;;9.10;99.90;;;;;;5134716;27;20234;-78
2023/01/03 09:11:50;;;;;;;4.45;2.75;;;9.10;99.90;;;;;;5135005;27;20308;-77
2023/01/03 09:14:17;;;;;;;8.13;2.58;;;9.10;99.90;;;;;;5135731;27;20241;-77
2023/01/03 09:16:44;;;;;;;7.40;3.47;;;9.10;99.90;;;;;;5135874;27;20344;-77
2023/01/03 09:19:12;;;;;;;7.82;3.63;;;9.10;99.90;;;;;;5137251;27;20560;-79
2023/01/03 09:21:41;;;;;;;5.13;3.53;;;9.10;99.90;;;;;;5145444;27;20253;-77
2023/01/03 09:24:09;;;;;;;4.13;3.13;;;9.20;99.90;;;;;;5148249;27;20229;-77
2023/01/03 09:26:36;;;;;;;5.88;4.00;;;9.20;99.90;;;;;;5151040;27;20226;-77
2023/01/03 09:29:03;;;;;;;5.57;3.30;;;9.20;99.90;;;;;;5154847;27;20238;-78
2023/01/03 09:31:33;;;;;;;2.97;2.70;;;9.20;99.90;;;;;;5144506;27;20230;-77
2023/01/03 09:34:03;;;;;;;5.60;3.85;;;9.20;99.90;;;;;;5155734;27;20659;-77
2023/01/03 09:36:31;;;;;;;6.65;3.97;;;9.20;99.90;;;;;;5153931;27;20226;-79
2023/01/03 09:39:00;;;;;;;4.22;3.30;;;9.20;99.90;;;;;;5152150;27;20293;-77
2023/01/03 09:41:28;;;;;;;3.33;2.92;;;9.30;99.90;;;;;;5138448;27;20229;-79
2023/01/03 09:43:59;;;;;;;4.30;3.13;;;9.20;99.90;;;;;;5149985;27;20222;-79
2023/01/03 09:46:28;;;;;;;3.50;3.20;;;9.20;99.90;;;;;;5149266;27;20267;-79
2023/01/03 09:48:56;;;;;;;3.95;2.92;;;9.30;99.90;;;;;;5147094;27;20222;-77
2023/01/03 10:05:52;;;;;;;8.57;4.70;;;9.40;99.90;;;;;;5142262;27;20612;-77
2023/01/03 10:08:31;;;;;;;9.50;4.38;;;9.40;99.90;;;;;;5146448;27;20218;-80
2023/01/03 10:11:06;;;;;;;6.40;4.10;;;9.40;99.90;;;;;;5150863;27;20217;-78
2023/01/03 10:13:55;;;;;;;7.07;3.78;;;9.40;99.90;;;;;;5153233;27;20227;-77
2023/01/03 10:16:33;;;;;;;5.22;3.65;;;9.40;99.90;;;;;;5151260;27;20221;-77
2023/01/03 10:22:09;;;;;;;5.28;4.32;;;9.50;99.90;;;;;;5095042;27;20225;-77
2023/01/03 10:24:45;;;;;;;5.15;4.15;;;9.50;99.90;;;;;;5137281;27;20218;-79
2023/01/03 10:27:17;;;;;;;6.38;3.75;;;9.50;99.90;;;;;;5136713;27;20233;-77
2023/01/03 10:29:46;;;;;;;3.63;3.20;;;9.50;99.90;;;;;;5127085;27;20302;-77
2023/01/03 10:32:34;;;;;;;3.17;2.90;;;9.50;99.90;;;;;;5136823;27;20687;-77
2023/01/03 10:35:14;;;;;;;4.40;3.17;;;9.60;99.90;;;;;;5136564;27;20629;-78
2023/01/03 10:37:44;;;;;;;3.47;2.80;;;9.60;99.90;;;;;;5137737;27;20226;-79
2023/01/03 10:40:12;;;;;;;5.45;2.60;;;9.60;99.90;;;;;;5136470;27;20221;-79
2023/01/03 10:42:42;;;;;;;4.57;3.90;;;9.70;99.90;;;;;;5127503;27;20275;-79
2023/01/03 10:45:14;;;;;;;4.95;3.35;;;9.70;99.90;;;;;;5136942;27;20224;-79
2023/01/03 10:47:41;;;;;;;12.13;4.65;;;9.70;99.90;;;;;;5136695;27;20594;-79
2023/01/03 10:50:23;;;;;;;7.32;4.35;;;9.80;99.90;;;;;;5125980;27;20250;-78
2023/01/03 10:52:56;;;;;;;5.10;3.75;;;9.80;99.90;;;;;;5123518;27;20221;-78
2023/01/03 10:55:29;;;;;;;4.97;3.50;;;9.80;99.90;;;;;;5136243;27;20229;-78
2023/01/03 10:58:04;;;;;;;8.13;4.93;;;9.80;99.90;;;;;;5135772;27;20229;-78
2023/01/03 11:00:37;;;;;;;7.15;4.40;;;9.90;99.90;;;;;;5125813;27;20278;-77
2023/01/03 11:03:16;;;;;;;5.95;4.40;;;9.90;99.90;;;;;;5135868;27;20691;-78
2023/01/03 11:05:46;;;;;;;6.90;4.70;;;9.90;99.90;;;;;;5126448;27;20226;-78
2023/01/03 11:08:22;;;;;;;6.30;5.50;;;9.90;99.90;;;;;;5135607;27;20683;-78
2023/01/03 11:10:53;;;;;;;12.27;10.48;;;9.90;99.90;;;;;;5126110;27;20255;-78
2023/01/03 11:13:35;;;;;;;10.57;7.50;;;9.90;99.90;;;;;;5135796;27;20329;-78
2023/01/03 11:16:13;;;;;;;8.98;7.28;;;9.80;99.90;;;;;;5135216;27;20225;-78
2023/01/03 11:18:42;;;;;;;6.47;4.90;;;9.90;99.90;;;;;;5136827;27;20290;-77
2023/01/03 11:21:16;;;;;;;5.18;4.55;;;9.90;99.90;;;;;;5125028;27;20254;-79
2023/01/03 11:24:22;;;;;;;5.15;4.25;;;10.00;99.90;;;;;;5135003;27;20230;-80
2023/01/03 11:27:00;;;;;;;8.63;4.45;;;10.00;99.90;;;;;;5135921;27;20301;-79
2023/01/03 11:29:39;;;;;;;6.00;4.68;;;10.00;99.90;;;;;;5124507;27;20233;-78
2023/01/03 11:32:23;;;;;;;6.18;4.38;;;10.00;99.90;;;;;;5137101;27;20327;-79
2023/01/03 11:35:26;;;;;;;4.97;4.47;;;10.10;99.90;;;;;;5128218;27;20548;-78
2023/01/03 11:38:03;;;;;;;7.95;4.50;;;10.10;99.90;;;;;;5067499;27;20294;-77
2023/01/03 11:40:43;;;;;;;5.63;5.00;;;10.10;99.90;;;;;;5135842;27;20249;-77
2023/01/03 11:43:35;;;;;;;8.48;5.00;;;10.10;99.90;;;;;;5136901;27;20294;-78
2023/01/03 11:46:20;;;;;;;6.30;4.60;;;10.10;99.90;;;;;;5136040;27;20253;-77
2023/01/03 11:49:09;;;;;;;8.88;5.13;;;10.00;99.90;;;;;;5135507;27;20233;-78
2023/01/03 11:52:00;;;;;;;;;;;;;;;;;;;;;
2023/01/03 11:55:03;;;;;;;9.07;5.75;;;10.10;99.90;;;;;;5136522;27;20591;-77
2023/01/03 11:57:39;;;;;;;8.73;5.45;;;10.10;99.90;;;;;;5135555;27;20768;-76
2023/01/03 12:00:18;;;;;;;8.15;5.93;;;10.10;99.90;;;;;;5127566;27;20248;-79
2023/01/03 12:03:04;;;;;;;5.90;5.30;;;10.10;99.90;;;;;;5135270;27;20222;-79
2023/01/03 12:05:53;;;;;;;9.15;4.70;;;10.10;99.90;;;;;;5135086;27;20550;-79
2023/01/03 12:08:45;;;;;;;7.32;6.57;;;10.10;99.90;;;;;;5136398;27;20558;-79
2023/01/03 12:11:55;;;;;;;9.52;5.57;;;10.10;99.90;;;;;;5136126;27;20210;-79
2023/01/03 12:14:26;;;;;;;6.10;5.00;;;10.10;99.90;;;;;;5077329;27;20311;-79
2023/01/03 12:17:00;;;;;;;6.18;5.20;;;10.10;99.90;;;;;;5135748;27;20222;-79
2023/01/03 12:19:42;;;;;;;5.68;4.30;;;10.10;99.90;;;;;;5133082;27;20249;-79
2023/01/03 12:22:17;;;;;;;5.30;3.78;;;10.20;99.90;;;;;;5124228;27;20257;-79
2023/01/03 12:24:51;;;;;;;5.93;3.80;;;10.10;99.90;;;;;;5139613;27;20229;-80
2023/01/03 12:27:24;;;;;;;3.92;3.08;;;10.10;99.90;;;;;;5128170;27;20285;-80
2023/01/03 12:29:57;;;;;;;4.85;3.17;;;10.10;99.90;;;;;;5125493;27;20258;-78
2023/01/03 12:32:34;;;;;;;3.95;2.80;;;10.10;99.90;;;;;;5133763;27;20214;-80
2023/01/03 12:35:21;;;;;;;5.68;2.92;;;10.10;99.90;;;;;;5134474;27;20221;-78
2023/01/03 12:37:50;;;;;;;6.43;3.65;;;10.20;99.90;;;;;;5135256;27;20228;-78
2023/01/03 12:40:25;;;;;;;5.50;2.80;;;10.10;99.90;;;;;;5133896;27;20217;-79
2023/01/03 12:43:00;;;;;;;5.80;2.97;;;10.20;99.90;;;;;;5122620;27;20260;-80
2023/01/03 12:45:41;;;;;;;5.72;3.00;;;10.20;99.90;;;;;;5122938;27;20518;-78
2023/01/03 12:48:18;;;;;;;7.65;3.80;;;10.20;99.90;;;;;;5123951;27;20217;-79
2023/01/03 12:50:49;;;;;;;6.60;3.15;;;10.20;99.90;;;;;;5134261;27;20262;-79
2023/01/03 12:53:22;;;;;;;3.70;3.40;;;10.20;99.90;;;;;;5134511;27;20282;-80
2023/01/03 12:56:03;;;;;;;6.20;3.50;;;10.20;99.90;;;;;;5135180;27;20226;-79
2023/01/03 12:58:43;;;;;;;2.95;2.65;;;10.10;99.90;;;;;;5133976;27;20547;-80
2023/01/03 13:01:14;;;;;;;3.92;3.50;;;10.10;99.90;;;;;;5134159;27;20251;-80
2023/01/03 13:03:45;;;;;;;3.80;2.63;;;10.10;99.90;;;;;;5123481;27;20228;-79
2023/01/03 13:06:20;;;;;;;5.40;3.33;;;10.10;99.90;;;;;;5134237;27;20542;-79
2023/01/03 13:11:45;;;;;;;4.20;2.80;;;10.10;99.90;;;;;;5127204;27;20221;-80
2023/01/03 13:14:19;;;;;;;5.78;5.15;;;10.10;99.90;;;;;;5133502;27;20614;-80
2023/01/03 13:16:47;;;;;;;5.57;4.75;;;10.00;99.90;;;;;;5133245;27;20304;-78
2023/01/03 13:19:57;;;;;;;9.05;5.20;;;10.00;99.90;;;;;;5133214;27;20222;-78
2023/01/03 13:22:50;;;;;;;3.90;3.40;;;10.00;99.90;;;;;;5133726;27;20245;-80
2023/01/03 13:25:40;;;;;;;4.38;3.45;;;10.00;99.90;;;;;;5129677;27;20225;-79
2023/01/03 13:28:33;;;;;;;6.70;3.80;;;10.00;99.90;;;;;;5133145;27;20556;-80
2023/01/03 13:31:48;;;;;;;4.90;3.53;;;10.00;99.90;;;;;;5133796;27;20253;-79
2023/01/03 13:34:35;;;;;;;7.10;4.28;;;10.00;99.90;;;;;;5133715;27;20214;-78
2023/01/03 13:37:21;;;;;;;8.32;3.70;;;10.00;99.90;;;;;;5136373;27;20237;-78
2023/01/03 13:40:19;;;;;;;9.48;5.32;;;9.90;99.90;;;;;;5143420;27;20744;-79
2023/01/03 13:42:46;;;;;;;9.45;7.43;;;9.90;99.90;;;;;;5147951;27;20241;-78
2023/01/03 13:45:56;;;;;;;7.10;5.95;;;9.90;99.90;;;;;;5145319;27;20236;-79
2023/01/03 13:48:54;;;;;;;8.20;5.25;;;9.90;99.90;;;;;;5139248;27;20213;-80
2023/01/03 13:51:47;;;;;;;5.60;4.05;;;9.90;99.90;;;;;;5139999;27;20537;-79
2023/01/03 13:54:39;;;;;;;4.30;3.67;;;9.90;99.90;;;;;;5136088;27;20278;-78
2023/01/03 13:57:55;;;;;;;6.88;4.43;;;9.90;99.90;;;;;;5136091;27;20248;-80
2023/01/03 14:00:29;;;;;;;4.95;4.40;;;9.80;99.90;;;;;;5137987;27;20230;-80
2023/01/03 14:03:25;;;;;;;5.60;4.45;;;9.90;99.90;;;;;;5139794;27;20357;-78
2023/01/03 14:06:25;;;;;;;6.72;3.55;;;9.80;99.90;;;;;;5144271;27;20222;-78
2023/01/03 14:09:21;;;;;;;6.07;4.32;;;9.70;99.90;;;;;;5139891;27;20206;-78
2023/01/03 14:12:12;;;;;;;7.00;4.13;;;9.80;99.90;;;;;;5153938;27;20210;-78
2023/01/03 14:14:42;;;;;;;5.72;4.07;;;9.80;99.90;;;;;;5153013;27;20232;-78
2023/01/03 14:17:17;;;;;;;6.10;3.75;;;9.70;99.90;;;;;;5139239;27;20236;-78
2023/01/03 14:19:50;;;;;;;4.18;3.30;;;9.70;99.90;;;;;;5152879;27;20252;-77
2023/01/03 14:22:22;;;;;;;3.30;2.90;;;9.70;99.90;;;;;;5140587;27;20220;-77
2023/01/03 14:24:55;;;;;;;3.33;3.05;;;9.70;99.90;;;;;;5153736;27;20222;-78
2023/01/03 14:27:27;;;;;;;5.90;4.90;;;9.70;99.90;;;;;;5152327;27;20221;-78
2023/01/03 14:30:08;;;;;;;10.65;5.32;;;9.70;99.90;;;;;;5152701;27;20218;-77
2023/01/03 14:32:36;;;;;;;7.65;6.13;;;9.70;99.90;;;;;;5153097;27;20222;-77
2023/01/03 14:35:03;;;;;;;10.32;6.53;;;9.70;99.90;;;;;;5145214;27;20222;-78
2023/01/03 14:37:33;;;;;;;9.55;6.13;;;9.70;99.90;;;;;;5148651;27;20214;-77
2023/01/03 14:40:02;;;;;;;5.82;4.43;;;9.70;99.90;;;;;;5137068;27;20695;-76
2023/01/03 14:42:32;;;;;;;5.45;4.40;;;9.60;99.90;;;;;;5128322;27;20267;-79
2023/01/03 14:45:20;;;;;;;5.10;4.60;;;9.70;99.90;;;;;;5129241;27;20279;-79
2023/01/03 14:47:48;;;;;;;10.57;5.75;;;9.70;99.90;;;;;;5139411;27;20251;-79